createdAt,value
2022-09-27T00:02:43.755Z,7.03
2022-09-27T00:05:45.184Z,6.80
2022-09-27T00:08:46.563Z,6.20
2022-09-27T00:11:48.007Z,5.85
2022-09-27T00:14:49.419Z,5.78
2022-09-27T00:17:50.860Z,5.97
2022-09-27T00:20:52.689Z,6.05
2022-09-27T00:23:54.136Z,5.35
2022-09-27T00:26:56.008Z,5.90
2022-09-27T00:29:57.446Z,6.13
2022-09-27T00:32:58.818Z,6.05
2022-09-27T00:36:05.269Z,6.25
2022-09-27T00:39:06.922Z,5.97
2022-09-27T00:42:12.946Z,5.63
2022-09-27T00:45:16.093Z,6.10
2022-09-27T00:48:20.091Z,5.00
2022-09-27T00:51:21.633Z,5.80
2022-09-27T00:54:25.850Z,5.47
2022-09-27T00:57:28.281Z,5.93
2022-09-27T01:00:29.705Z,5.13
2022-09-27T01:03:56.468Z,5.22
2022-09-27T01:06:57.982Z,5.43
2022-09-27T01:09:59.436Z,5.47
2022-09-27T01:13:19.105Z,5.55
2022-09-27T01:16:36.158Z,5.63
2022-09-27T01:19:59.366Z,5.30
2022-09-27T01:23:32.239Z,5.82
2022-09-27T01:27:14.944Z,5.28
2022-09-27T01:30:27.988Z,4.82
2022-09-27T01:34:00.015Z,5.35
2022-09-27T01:37:16.239Z,5.57
2022-09-27T01:40:52.821Z,5.72
2022-09-27T01:44:30.008Z,6.25
2022-09-27T01:47:44.444Z,5.82
2022-09-27T01:54:19.033Z,5.68
2022-09-27T01:58:01.155Z,6.00
2022-09-27T02:01:04.570Z,6.40
2022-09-27T02:04:10.958Z,5.97
2022-09-27T02:07:55.399Z,6.43
2022-09-27T02:11:01.420Z,6.55
2022-09-27T02:14:11.027Z,7.00
2022-09-27T02:17:30.534Z,6.47
2022-09-27T02:20:44.761Z,6.63
2022-09-27T02:23:52.036Z,6.72
2022-09-27T02:27:04.288Z,6.45
2022-09-27T02:30:11.828Z,7.28
2022-09-27T02:33:14.685Z,7.53
2022-09-27T02:36:16.925Z,7.03
2022-09-27T02:39:19.569Z,7.70
2022-09-27T02:42:24.891Z,7.05
2022-09-27T02:45:32.169Z,7.28
2022-09-27T02:49:04.616Z,7.50
2022-09-27T02:52:33.330Z,7.80
2022-09-27T02:56:03.466Z,7.88
2022-09-27T02:59:53.370Z,7.85
2022-09-27T03:03:14.879Z,7.53
2022-09-27T03:06:34.435Z,7.78
2022-09-27T03:09:47.887Z,8.63
2022-09-27T03:12:49.419Z,8.63
2022-09-27T03:15:50.867Z,9.07
2022-09-27T03:19:20.542Z,8.43
2022-09-27T03:22:24.538Z,8.52
2022-09-27T03:25:26.028Z,8.98
2022-09-27T03:28:27.407Z,8.07
2022-09-27T03:31:28.935Z,8.93
2022-09-27T03:34:48.639Z,9.55
2022-09-27T03:37:50.375Z,9.13
2022-09-27T03:40:51.939Z,8.73
2022-09-27T03:43:53.407Z,9.27
2022-09-27T03:46:54.909Z,9.77
2022-09-27T03:49:56.315Z,9.30
2022-09-27T03:52:57.753Z,10.70
2022-09-27T03:55:59.761Z,10.23
2022-09-27T03:59:01.563Z,10.27
2022-09-27T04:02:06.747Z,10.55
2022-09-27T04:05:46.212Z,10.90
2022-09-27T04:08:53.829Z,11.00
2022-09-27T04:11:58.368Z,11.05
2022-09-27T04:14:59.837Z,11.00
2022-09-27T04:18:19.893Z,11.15
2022-09-27T04:21:41.642Z,10.95
2022-09-27T04:27:57.501Z,11.60
2022-09-27T04:30:59.010Z,11.57
2022-09-27T04:34:23.342Z,11.60
2022-09-27T04:37:25.546Z,11.80
2022-09-27T04:40:30.662Z,12.13
2022-09-27T04:43:32.114Z,10.93
2022-09-27T04:46:33.716Z,11.65
2022-09-27T04:49:36.662Z,12.13
2022-09-27T04:52:38.710Z,13.50
2022-09-27T04:55:40.083Z,13.05
2022-09-27T04:58:41.858Z,15.15
2022-09-27T05:01:43.355Z,16.75
2022-09-27T05:04:55.112Z,16.33
2022-09-27T05:07:56.555Z,23.47
2022-09-27T05:11:18.206Z,31.98
2022-09-27T05:14:39.549Z,24.75
2022-09-27T05:17:54.218Z,28.38
2022-09-27T05:21:33.636Z,19.55
2022-09-27T05:24:35.035Z,18.10
2022-09-27T05:27:36.540Z,15.35
2022-09-27T05:30:37.976Z,14.50
2022-09-27T05:33:44.274Z,14.85
2022-09-27T05:37:06.804Z,15.23
2022-09-27T05:40:36.497Z,12.48
2022-09-27T05:43:34.196Z,11.15
2022-09-27T05:46:36.584Z,9.88
2022-09-27T05:49:38.778Z,10.02
2022-09-27T05:52:40.180Z,8.35
2022-09-27T05:55:42.549Z,7.85
2022-09-27T05:58:45.021Z,7.78
2022-09-27T06:01:52.085Z,8.40
2022-09-27T06:05:13.832Z,7.03
2022-09-27T06:08:15.477Z,7.00
2022-09-27T06:11:20.893Z,6.18
2022-09-27T06:14:24.442Z,6.30
2022-09-27T06:17:40.654Z,5.72
2022-09-27T06:20:48.934Z,5.30
2022-09-27T06:23:54.264Z,4.38
2022-09-27T06:27:00.829Z,4.18
2022-09-27T06:30:14.850Z,3.20
2022-09-27T06:33:22.735Z,2.42
2022-09-27T06:36:28.215Z,2.50
2022-09-27T06:39:29.627Z,2.40
2022-09-27T06:42:49.466Z,2.55
2022-09-27T06:46:09.598Z,2.60
2022-09-27T06:49:29.688Z,3.20
2022-09-27T06:52:33.767Z,3.70
2022-09-27T06:55:35.176Z,3.70
2022-09-27T06:58:36.631Z,3.28
2022-09-27T07:02:04.181Z,2.67
2022-09-27T07:05:31.157Z,2.65
2022-09-27T07:08:54.616Z,2.42
2022-09-27T07:11:57.275Z,2.70
2022-09-27T07:14:58.841Z,2.72
2022-09-27T07:18:00.219Z,2.05
2022-09-27T07:21:03.439Z,2.00
2022-09-27T07:24:06.128Z,2.10
2022-09-27T07:27:08.032Z,2.60
2022-09-27T07:30:10.623Z,2.30
2022-09-27T07:33:12.280Z,2.93
2022-09-27T07:36:14.058Z,2.83
2022-09-27T07:39:17.858Z,2.95
2022-09-27T07:42:19.340Z,4.28
2022-09-27T07:45:25.448Z,3.22
2022-09-27T07:48:56.753Z,2.50
2022-09-27T07:52:10.393Z,2.30
2022-09-27T07:55:30.700Z,1.77
2022-09-27T07:58:37.426Z,1.60
2022-09-27T08:01:41.347Z,1.20
2022-09-27T08:04:43.330Z,1.20
2022-09-27T08:07:45.021Z,1.30
2022-09-27T08:10:46.758Z,1.80
2022-09-27T08:13:48.602Z,1.05
2022-09-27T08:16:50.697Z,1.27
2022-09-27T08:20:09.205Z,1.40
2022-09-27T08:23:25.043Z,1.30
2022-09-27T08:26:40.446Z,1.25
2022-09-27T08:29:45.686Z,1.70
2022-09-27T08:32:47.080Z,1.60
2022-09-27T08:35:48.546Z,1.75
2022-09-27T08:38:50.918Z,1.60
2022-09-27T08:42:32.108Z,1.92
2022-09-27T08:45:52.873Z,1.92
2022-09-27T08:49:04.283Z,1.77
2022-09-27T08:52:12.572Z,2.10
2022-09-27T08:55:26.255Z,2.00
2022-09-27T08:58:35.500Z,2.10
2022-09-27T09:01:40.403Z,2.00
2022-09-27T09:04:54.366Z,1.90
2022-09-27T09:08:30.243Z,1.23
2022-09-27T09:11:50.063Z,1.70
2022-09-27T09:14:51.716Z,1.50
2022-09-27T09:18:43.028Z,1.60
2022-09-27T09:22:33.742Z,1.45
2022-09-27T09:25:53.960Z,1.40
2022-09-27T09:29:04.718Z,1.45
2022-09-27T09:32:32.941Z,1.48
2022-09-27T09:35:39.255Z,2.45
2022-09-27T09:38:47.885Z,1.58
2022-09-27T09:42:02.378Z,1.70
2022-09-27T09:45:19.093Z,1.20
2022-09-27T09:48:35.182Z,1.50
2022-09-27T09:51:43.985Z,1.52
2022-09-27T09:54:54.824Z,1.20
2022-09-27T09:58:08.562Z,1.40
2022-09-27T10:01:22.444Z,1.70
2022-09-27T10:04:28.710Z,1.40
2022-09-27T10:07:34.614Z,1.15
2022-09-27T10:13:56.159Z,1.80
2022-09-27T10:17:05.768Z,1.45
2022-09-27T10:20:14.207Z,1.90
2022-09-27T10:23:19.379Z,2.05
2022-09-27T10:26:40.602Z,2.10
2022-09-27T10:29:43.899Z,1.30
2022-09-27T10:33:14.599Z,1.60
2022-09-27T10:36:31.644Z,1.60
2022-09-27T10:39:34.783Z,1.05
2022-09-27T10:42:38.394Z,1.27
2022-09-27T10:45:42.702Z,2.58
2022-09-27T10:49:26.504Z,1.42
2022-09-27T10:52:28.624Z,2.05
2022-09-27T10:55:34.616Z,1.85
2022-09-27T10:58:38.650Z,3.00
2022-09-27T11:01:46.513Z,1.30
2022-09-27T11:05:15.989Z,2.63
2022-09-27T11:08:30.135Z,5.10
2022-09-27T11:11:39.432Z,2.85
2022-09-27T11:14:41.663Z,3.65
2022-09-27T11:17:46.538Z,1.75
2022-09-27T11:21:02.185Z,2.05
2022-09-27T11:24:25.689Z,1.25
2022-09-27T11:30:50.606Z,1.08
2022-09-27T11:34:34.967Z,1.40
2022-09-27T11:38:21.147Z,1.52
2022-09-27T11:41:57.429Z,1.30
2022-09-27T11:45:56.431Z,1.67
2022-09-27T11:49:02.409Z,0.68
2022-09-27T11:52:22.636Z,0.88
2022-09-27T11:55:42.082Z,1.05
2022-09-27T11:59:02.336Z,1.58
2022-09-27T12:02:18.878Z,1.20
2022-09-27T12:05:39.067Z,0.73
2022-09-27T12:09:04.856Z,0.82
2022-09-27T12:12:21.122Z,0.98
2022-09-27T12:15:30.431Z,1.63
2022-09-27T12:18:37.251Z,1.20
2022-09-27T12:21:41.647Z,0.52
2022-09-27T12:24:45.605Z,0.80
2022-09-27T12:28:15.292Z,0.80
2022-09-27T12:31:34.033Z,0.80
2022-09-27T12:34:42.384Z,0.50
2022-09-27T12:37:45.909Z,0.88
2022-09-27T12:40:52.492Z,0.80
2022-09-27T12:43:59.971Z,0.60
2022-09-27T12:47:41.033Z,1.20
2022-09-27T12:50:58.245Z,1.10
2022-09-27T12:54:31.459Z,1.00
2022-09-27T12:58:10.448Z,0.70
2022-09-27T13:01:17.949Z,0.77
2022-09-27T13:04:59.396Z,0.60
2022-09-27T13:08:27.041Z,1.65
2022-09-27T13:11:44.715Z,0.63
2022-09-27T13:14:58.797Z,0.80
2022-09-27T13:18:03.465Z,0.90
2022-09-27T13:21:50.949Z,1.27
2022-09-27T13:25:49.634Z,0.90
2022-09-27T13:29:01.757Z,0.60
2022-09-27T13:32:21.966Z,0.80
2022-09-27T13:35:36.398Z,2.78
2022-09-27T13:38:59.454Z,1.00
2022-09-27T13:42:11.559Z,0.80
2022-09-27T13:45:24.513Z,1.20
2022-09-27T13:48:54.922Z,1.77
2022-09-27T13:52:15.778Z,1.52
2022-09-27T13:55:39.603Z,1.50
2022-09-27T13:58:48.791Z,1.77
2022-09-27T14:02:23.613Z,1.20
2022-09-27T14:05:36.238Z,0.75
2022-09-27T14:11:50.679Z,0.70
2022-09-27T14:14:55.674Z,0.70
2022-09-27T14:17:58.841Z,1.63
2022-09-27T14:25:00.311Z,0.90
2022-09-27T14:28:24.048Z,0.57
2022-09-27T14:31:46.810Z,0.50
2022-09-27T14:35:15.371Z,0.70
2022-09-27T14:38:37.041Z,0.60
2022-09-27T14:41:41.152Z,0.50
2022-09-27T14:44:45.244Z,0.70
2022-09-27T14:47:48.863Z,0.50
2022-09-27T14:50:55.849Z,0.85
2022-09-27T14:53:59.354Z,0.85
2022-09-27T14:57:00.722Z,1.00
2022-09-27T15:00:15.174Z,0.80
2022-09-27T15:03:23.169Z,0.60
2022-09-27T15:06:24.783Z,0.90
2022-09-27T15:09:29.749Z,0.85
2022-09-27T15:12:34.244Z,0.93
2022-09-27T15:15:37.485Z,3.25
2022-09-27T15:21:40.140Z,1.30
2022-09-27T15:24:46.380Z,1.70
2022-09-27T15:27:55.485Z,0.90
2022-09-27T15:30:58.350Z,1.05
2022-09-27T15:34:00.237Z,0.70
2022-09-27T15:37:02.596Z,0.60
2022-09-27T15:40:57.292Z,0.30
2022-09-27T15:43:58.670Z,0.60
2022-09-27T15:47:00.067Z,0.63
2022-09-27T15:50:16.834Z,0.82
2022-09-27T15:53:36.587Z,0.50
2022-09-27T15:56:39.525Z,0.40
2022-09-27T15:59:40.850Z,0.65
2022-09-27T16:02:42.374Z,0.60
2022-09-27T16:05:43.694Z,0.93
2022-09-27T16:08:45.363Z,0.40
2022-09-27T16:11:48.625Z,0.50
2022-09-27T16:14:49.942Z,1.17
2022-09-27T16:17:51.351Z,0.93
2022-09-27T16:20:52.818Z,0.40
2022-09-27T16:23:54.175Z,0.55
2022-09-27T16:26:55.495Z,0.60
2022-09-27T16:29:56.823Z,1.95
2022-09-27T16:32:58.131Z,1.42
2022-09-27T16:36:00.206Z,0.45
2022-09-27T16:39:01.949Z,0.40
2022-09-27T16:42:03.364Z,0.50
2022-09-27T16:45:10.541Z,0.95
2022-09-27T16:48:13.268Z,0.50
2022-09-27T16:51:21.078Z,0.60
2022-09-27T16:54:22.760Z,0.60
2022-09-27T16:57:24.199Z,0.88
2022-09-27T17:00:26.421Z,0.82
2022-09-27T17:03:27.791Z,2.10
2022-09-27T17:06:29.191Z,4.32
2022-09-27T17:09:30.581Z,3.63
2022-09-27T17:12:32.876Z,1.08
2022-09-27T17:15:34.208Z,0.70
2022-09-27T17:18:35.528Z,0.65
2022-09-27T17:21:38.186Z,0.70
2022-09-27T17:24:39.698Z,0.63
2022-09-27T17:27:41.027Z,1.10
2022-09-27T17:30:42.344Z,1.13
2022-09-27T17:33:49.178Z,1.00
2022-09-27T17:36:50.531Z,1.40
2022-09-27T17:39:52.225Z,1.30
2022-09-27T17:42:53.561Z,2.20
2022-09-27T17:45:54.869Z,3.05
2022-09-27T17:48:56.504Z,4.15
2022-09-27T17:51:58.666Z,5.07
2022-09-27T17:55:00.457Z,3.33
2022-09-27T17:58:01.958Z,4.38
2022-09-27T18:01:05.215Z,2.70
2022-09-27T18:07:09.010Z,2.20
2022-09-27T18:10:10.350Z,2.33
2022-09-27T18:13:11.739Z,2.83
2022-09-27T18:16:18.189Z,2.47
2022-09-27T18:19:19.687Z,2.40
2022-09-27T18:22:21.095Z,2.35
2022-09-27T18:25:22.628Z,2.65
2022-09-27T18:28:28.815Z,2.25
2022-09-27T18:31:30.278Z,2.08
2022-09-27T18:34:31.672Z,5.10
2022-09-27T18:37:33.016Z,3.55
2022-09-27T18:40:55.100Z,3.67
2022-09-27T18:43:59.081Z,9.27
2022-09-27T18:47:00.449Z,2.80
2022-09-27T18:50:01.796Z,3.85
2022-09-27T18:53:03.518Z,3.75
2022-09-27T18:56:07.464Z,4.50
2022-09-27T18:59:10.243Z,4.30
2022-09-27T19:02:11.696Z,3.80
2022-09-27T19:05:13.136Z,5.68
2022-09-27T19:08:14.593Z,5.10
2022-09-27T19:11:18.141Z,6.38
2022-09-27T19:14:21.677Z,5.60
2022-09-27T19:17:23.057Z,4.70
2022-09-27T19:20:24.529Z,3.90
2022-09-27T19:23:25.893Z,5.05
2022-09-27T19:26:27.321Z,6.18
2022-09-27T19:29:28.689Z,7.13
2022-09-27T19:32:30.273Z,5.82
2022-09-27T19:35:31.621Z,4.30
2022-09-27T19:38:34.382Z,3.50
2022-09-27T19:41:35.724Z,3.28
2022-09-27T19:44:37.081Z,3.78
2022-09-27T19:47:38.445Z,3.08
2022-09-27T19:50:39.787Z,8.02
2022-09-27T19:53:41.546Z,4.40
2022-09-27T19:56:42.981Z,8.52
2022-09-27T19:59:44.322Z,6.60
2022-09-27T20:02:45.741Z,8.13
2022-09-27T20:05:52.735Z,4.28
2022-09-27T20:08:54.110Z,6.47
2022-09-27T20:11:55.435Z,3.42
2022-09-27T20:14:56.843Z,12.57
2022-09-27T20:17:58.182Z,13.40
2022-09-27T20:21:01.448Z,9.07
2022-09-27T20:24:04.707Z,9.98
2022-09-27T20:30:08.089Z,14.73
2022-09-27T20:33:09.432Z,6.85
2022-09-27T20:36:16.568Z,4.07
2022-09-27T20:39:17.979Z,3.30
2022-09-27T20:42:19.444Z,3.10
2022-09-27T20:45:21.136Z,3.25
2022-09-27T20:48:22.477Z,3.80
2022-09-27T20:51:24.275Z,3.58
2022-09-27T20:54:25.679Z,3.42
2022-09-27T20:57:40.441Z,4.18
2022-09-27T21:00:48.484Z,3.25
2022-09-27T21:03:57.244Z,3.67
2022-09-27T21:06:58.611Z,3.33
2022-09-27T21:09:59.959Z,4.07
2022-09-27T21:13:01.408Z,4.22
2022-09-27T21:16:08.545Z,4.47
2022-09-27T21:19:10.111Z,4.55
2022-09-27T21:22:11.505Z,4.55
2022-09-27T21:25:12.849Z,5.47
2022-09-27T21:28:14.198Z,5.20
2022-09-27T21:31:23.042Z,4.63
2022-09-27T21:34:24.708Z,5.07
2022-09-27T21:37:26.046Z,4.82
2022-09-27T21:40:27.435Z,5.72
2022-09-27T21:43:34.218Z,5.82
2022-09-27T21:46:39.324Z,4.93
2022-09-27T21:49:40.726Z,5.18
2022-09-27T21:52:42.065Z,4.80
2022-09-27T21:55:53.919Z,4.97
2022-09-27T21:58:55.385Z,4.65
2022-09-27T22:01:56.761Z,4.40
2022-09-27T22:04:58.164Z,4.85
2022-09-27T22:07:59.639Z,5.03
2022-09-27T22:11:01.020Z,6.65
2022-09-27T22:14:02.691Z,4.97
2022-09-27T22:17:04.079Z,4.25
2022-09-27T22:20:05.944Z,3.95
2022-09-27T22:23:07.320Z,3.65
2022-09-27T22:26:20.149Z,6.18
2022-09-27T22:29:21.490Z,4.50
2022-09-27T22:32:22.893Z,4.95
2022-09-27T22:35:24.233Z,4.00
2022-09-27T22:38:26.308Z,4.20
2022-09-27T22:41:27.824Z,4.25
2022-09-27T22:44:29.172Z,4.38
2022-09-27T22:47:30.800Z,3.35
2022-09-27T22:50:32.144Z,4.45
2022-09-27T22:53:34.936Z,4.55
2022-09-27T22:56:36.309Z,4.40
2022-09-27T22:59:37.683Z,4.35
2022-09-27T23:02:39.021Z,5.18
2022-09-27T23:05:40.389Z,4.43
2022-09-27T23:08:41.789Z,5.28
2022-09-27T23:11:43.602Z,5.18
2022-09-27T23:14:44.919Z,5.07
2022-09-27T23:17:49.918Z,5.38
2022-09-27T23:20:51.258Z,5.38
2022-09-27T23:23:53.928Z,5.32
2022-09-27T23:26:55.283Z,5.83
2022-09-27T23:29:56.614Z,5.00
2022-09-27T23:32:57.946Z,5.15
2022-09-27T23:36:00.583Z,5.10
2022-09-27T23:39:01.942Z,5.20
2022-09-27T23:42:03.426Z,5.00
2022-09-27T23:45:05.278Z,4.78
2022-09-27T23:48:06.592Z,4.80
2022-09-27T23:51:10.711Z,5.22
2022-09-27T23:54:12.103Z,5.07
2022-09-27T23:57:13.419Z,5.47
